Time,TemperatureF,DewpointF,PressureIn,WindDirection,WindDirectionDegrees,WindSpeedMPH,WindSpeedGustMPH,Humidity,HourlyPrecipIn,Conditions,Clouds,dailyrainin,SolarRadiationWatts/m^2,SoftwareType,DateUTC
2013-07-19 00:01:00,75.5,74.0,30.01,South,188,0.0,0.0,95,0.00,,,0.00,0,Wunderground v.1.15,2013-07-19 04:01:00,
2013-07-19 00:03:00,75.6,74.1,30.02,South,188,0.0,0.0,95,0.00,,,0.00,0,Wunderground v.1.15,2013-07-19 04:03:00,
2013-07-19 00:05:00,75.6,74.1,30.01,South,188,0.0,0.0,95,0.00,,,0.00,0,Wunderground v.1.15,2013-07-19 04:05:00,
2013-07-19 00:06:00,75.6,74.1,30.01,South,188,0.0,0.0,95,0.00,,,0.00,0,Wunderground v.1.15,2013-07-19 04:06:00,
2013-07-19 00:07:00,75.7,74.2,30.01,South,188,0.0,0.0,95,0.00,,,0.00,0,Wunderground v.1.15,2013-07-19 04:07:00,
2013-07-19 00:13:00,75.7,74.2,30.01,South,188,0.0,0.0,95,0.00,,,0.00,0,Wunderground v.1.15,2013-07-19 04:13:00,
2013-07-19 00:19:00,75.6,74.1,30.02,South,188,0.0,0.0,95,0.00,,,0.00,0,Wunderground v.1.15,2013-07-19 04:19:00,
2013-07-19 00:24:00,75.5,73.7,30.02,South,188,0.0,0.0,94,0.00,,,0.00,0,Wunderground v.1.15,2013-07-19 04:24:00,
2013-07-19 00:30:00,75.5,73.7,30.01,South,188,0.0,0.0,94,0.00,,,0.00,0,Wunderground v.1.15,2013-07-19 04:30:00,
2013-07-19 00:36:00,75.3,73.5,30.01,South,188,0.0,0.0,94,0.00,,,0.00,0,Wunderground v.1.15,2013-07-19 04:36:00,
2013-07-19 00:41:00,75.3,73.5,30.02,South,188,0.0,0.0,94,0.00,,,0.00,0,Wunderground v.1.15,2013-07-19 04:41:00,
2013-07-19 00:46:00,75.2,73.4,30.01,South,188,0.0,0.0,94,0.00,,,0.00,0,Wunderground v.1.15,2013-07-19 04:46:00,
2013-07-19 00:52:00,75.2,73.4,30.01,South,188,0.0,0.0,94,0.00,,,0.00,0,Wunderground v.1.15,2013-07-19 04:52:00,
2013-07-19 00:58:00,75.1,73.6,30.01,South,188,0.0,0.0,95,0.00,,,0.00,0,Wunderground v.1.15,2013-07-19 04:58:00,
2013-07-19 01:04:00,75.0,73.5,30.01,SSW,198,0.0,0.0,95,0.00,,,0.01,0,Wunderground v.1.15,2013-07-19 05:04:00,
2013-07-19 01:09:00,75.0,73.8,30.01,South,187,0.0,2.0,96,0.16,,,0.02,0,Wunderground v.1.15,2013-07-19 05:09:00,
2013-07-19 01:15:00,74.8,73.3,30.01,South,187,0.0,0.0,95,0.06,,,0.02,0,Wunderground v.1.15,2013-07-19 05:15:00,
2013-07-19 01:20:00,74.6,73.4,30.01,South,187,0.0,0.0,96,0.04,,,0.02,0,Wunderground v.1.15,2013-07-19 05:20:00,
2013-07-19 01:26:00,74.5,73.3,30.01,South,187,0.0,0.0,96,0.00,,,0.02,0,Wunderground v.1.15,2013-07-19 05:26:00,
2013-07-19 01:31:00,74.3,73.1,30.01,South,187,0.0,0.0,96,0.00,,,0.02,0,Wunderground v.1.15,2013-07-19 05:31:00,
2013-07-19 01:37:00,74.2,73.0,30.01,South,187,0.0,0.0,96,0.00,,,0.02,0,Wunderground v.1.15,2013-07-19 05:37:00,
2013-07-19 01:43:00,74.1,72.9,30.01,South,187,0.0,0.0,96,0.00,,,0.02,0,Wunderground v.1.15,2013-07-19 05:43:00,
2013-07-19 01:49:00,74.0,72.8,30.01,South,187,0.0,0.0,96,0.00,,,0.02,0,Wunderground v.1.15,2013-07-19 05:49:00,
2013-07-19 01:54:00,74.0,72.8,30.01,South,187,0.0,0.0,96,0.00,,,0.02,0,Wunderground v.1.15,2013-07-19 05:54:00,
2013-07-19 02:00:00,73.9,73.0,30.00,South,187,0.0,0.0,97,0.00,,,0.02,0,Wunderground v.1.15,2013-07-19 06:00:00,
2013-07-19 02:05:00,73.9,73.0,30.01,South,187,0.0,0.0,97,0.00,,,0.02,0,Wunderground v.1.15,2013-07-19 06:05:00,
2013-07-19 02:10:00,73.8,72.9,30.01,South,187,0.0,0.0,97,0.00,,,0.02,0,Wunderground v.1.15,2013-07-19 06:10:00,
2013-07-19 02:15:00,73.8,72.9,30.01,South,187,0.0,0.0,97,0.00,,,0.02,0,Wunderground v.1.15,2013-07-19 06:15:00,
2013-07-19 02:20:00,73.7,72.8,30.00,South,187,0.0,0.0,97,0.00,,,0.02,0,Wunderground v.1.15,2013-07-19 06:20:00,
2013-07-19 02:25:00,73.6,72.7,30.01,South,187,0.0,0.0,97,0.00,,,0.02,0,Wunderground v.1.15,2013-07-19 06:25:00,
2013-07-19 02:30:00,73.5,72.6,30.01,South,187,0.0,0.0,97,0.00,,,0.02,0,Wunderground v.1.15,2013-07-19 06:30:00,
2013-07-19 02:35:00,73.5,72.6,30.00,South,187,0.0,0.0,97,0.00,,,0.02,0,Wunderground v.1.15,2013-07-19 06:35:00,
2013-07-19 02:40:00,73.5,72.6,30.00,South,187,0.0,0.0,97,0.00,,,0.02,0,Wunderground v.1.15,2013-07-19 06:40:00,
2013-07-19 02:45:00,73.5,72.6,30.00,South,187,0.0,0.0,97,0.00,,,0.02,0,Wunderground v.1.15,2013-07-19 06:45:00,
2013-07-19 02:50:00,73.5,72.6,30.00,South,187,0.0,0.0,97,0.00,,,0.02,0,Wunderground v.1.15,2013-07-19 06:50:00,
2013-07-19 02:55:00,73.4,72.5,30.00,South,187,0.0,0.0,97,0.00,,,0.02,0,Wunderground v.1.15,2013-07-19 06:55:00,
2013-07-19 03:00:00,73.4,72.5,30.00,South,187,0.0,0.0,97,0.00,,,0.02,0,Wunderground v.1.15,2013-07-19 07:00:00,
2013-07-19 03:05:00,73.3,72.4,30.00,South,187,0.0,0.0,97,0.00,,,0.02,0,Wunderground v.1.15,2013-07-19 07:05:00,
2013-07-19 03:10:00,73.3,72.4,30.00,South,187,0.0,0.0,97,0.00,,,0.02,0,Wunderground v.1.15,2013-07-19 07:10:00,
2013-07-19 03:15:00,73.2,72.3,30.00,South,187,0.0,0.0,97,0.00,,,0.02,0,Wunderground v.1.15,2013-07-19 07:15:00,
2013-07-19 03:20:00,73.2,72.3,30.00,South,187,0.0,0.0,97,0.00,,,0.02,0,Wunderground v.1.15,2013-07-19 07:20:00,
2013-07-19 03:25:00,73.2,72.3,30.00,South,187,0.0,0.0,97,0.00,,,0.02,0,Wunderground v.1.15,2013-07-19 07:25:00,
2013-07-19 03:30:00,73.2,72.6,30.00,South,187,0.0,0.0,98,0.00,,,0.02,0,Wunderground v.1.15,2013-07-19 07:30:00,
2013-07-19 03:35:00,73.3,72.7,30.00,South,187,0.0,0.0,98,0.00,,,0.02,0,Wunderground v.1.15,2013-07-19 07:35:00,
2013-07-19 03:40:00,73.2,72.3,30.00,South,187,0.0,0.0,97,0.00,,,0.02,0,Wunderground v.1.15,2013-07-19 07:40:00,
2013-07-19 03:45:00,73.2,72.6,30.00,South,187,0.0,0.0,98,0.00,,,0.02,0,Wunderground v.1.15,2013-07-19 07:45:00,
2013-07-19 03:50:00,73.3,72.7,30.00,South,187,0.0,0.0,98,0.00,,,0.02,0,Wunderground v.1.15,2013-07-19 07:50:00,
2013-07-19 03:55:00,73.3,72.7,30.00,South,187,0.0,0.0,98,0.00,,,0.02,0,Wunderground v.1.15,2013-07-19 07:55:00,
2013-07-19 04:00:00,73.3,72.7,30.00,South,187,0.0,0.0,98,0.00,,,0.02,0,Wunderground v.1.15,2013-07-19 08:00:00,
2013-07-19 04:05:00,73.4,72.8,30.00,South,187,0.0,0.0,98,0.00,,,0.02,0,Wunderground v.1.15,2013-07-19 08:05:00,
2013-07-19 04:10:00,73.4,72.8,30.00,South,187,0.0,0.0,98,0.00,,,0.02,0,Wunderground v.1.15,2013-07-19 08:10:00,
2013-07-19 04:15:00,73.4,72.8,29.99,South,187,0.0,0.0,98,0.00,,,0.02,0,Wunderground v.1.15,2013-07-19 08:15:00,
2013-07-19 04:20:00,73.4,72.8,29.99,South,187,0.0,0.0,98,0.00,,,0.02,0,Wunderground v.1.15,2013-07-19 08:20:00,
2013-07-19 04:25:00,73.4,72.8,29.99,South,187,0.0,0.0,98,0.00,,,0.02,0,Wunderground v.1.15,2013-07-19 08:25:00,
2013-07-19 04:30:00,73.4,72.8,29.99,South,187,0.0,0.0,98,0.00,,,0.02,0,Wunderground v.1.15,2013-07-19 08:30:00,
2013-07-19 04:35:00,73.4,72.8,29.99,South,187,0.0,0.0,98,0.00,,,0.02,0,Wunderground v.1.15,2013-07-19 08:35:00,
2013-07-19 04:40:00,73.3,72.7,29.99,South,187,0.0,0.0,98,0.00,,,0.02,0,Wunderground v.1.15,2013-07-19 08:40:00,
2013-07-19 04:45:00,73.4,72.8,29.99,South,187,0.0,0.0,98,0.00,,,0.02,0,Wunderground v.1.15,2013-07-19 08:45:00,
2013-07-19 04:50:00,73.3,72.7,29.99,South,187,0.0,0.0,98,0.00,,,0.02,0,Wunderground v.1.15,2013-07-19 08:50:00,
2013-07-19 04:55:00,73.4,72.8,29.99,South,187,0.0,0.0,98,0.00,,,0.02,0,Wunderground v.1.15,2013-07-19 08:55:00,
2013-07-19 05:00:00,73.4,72.8,29.99,South,187,0.0,0.0,98,0.00,,,0.02,0,Wunderground v.1.15,2013-07-19 09:00:00,
2013-07-19 05:05:00,73.4,72.8,29.98,South,187,0.0,0.0,98,0.00,,,0.02,0,Wunderground v.1.15,2013-07-19 09:05:00,
2013-07-19 05:10:00,73.4,72.8,29.98,South,187,0.0,0.0,98,0.00,,,0.02,0,Wunderground v.1.15,2013-07-19 09:10:00,
2013-07-19 05:15:00,73.3,72.7,29.98,South,187,0.0,0.0,98,0.00,,,0.02,0,Wunderground v.1.15,2013-07-19 09:15:00,
2013-07-19 05:20:00,73.3,72.7,29.98,South,187,0.0,0.0,98,0.00,,,0.02,0,Wunderground v.1.15,2013-07-19 09:20:00,
2013-07-19 05:25:00,73.3,72.7,29.98,South,187,0.0,0.0,98,0.00,,,0.02,0,Wunderground v.1.15,2013-07-19 09:25:00,
2013-07-19 05:30:00,73.3,72.7,29.98,South,187,0.0,0.0,98,0.00,,,0.02,0,Wunderground v.1.15,2013-07-19 09:30:00,
2013-07-19 05:35:00,73.4,72.8,29.98,South,187,0.0,0.0,98,0.00,,,0.02,0,Wunderground v.1.15,2013-07-19 09:35:00,
2013-07-19 05:40:00,73.3,72.7,29.98,South,187,0.0,0.0,98,0.00,,,0.02,0,Wunderground v.1.15,2013-07-19 09:40:00,
2013-07-19 05:45:00,73.2,72.6,29.98,South,187,0.0,0.0,98,0.00,,,0.02,0,Wunderground v.1.15,2013-07-19 09:45:00,
2013-07-19 05:50:00,73.2,72.6,29.98,South,187,0.0,0.0,98,0.00,,,0.02,0,Wunderground v.1.15,2013-07-19 09:50:00,
2013-07-19 05:55:00,73.3,72.7,29.98,South,187,0.0,0.0,98,0.00,,,0.02,0,Wunderground v.1.15,2013-07-19 09:55:00,
2013-07-19 06:00:00,73.3,72.7,29.98,South,187,0.0,0.0,98,0.00,,,0.02,7,Wunderground v.1.15,2013-07-19 10:00:00,
2013-07-19 06:05:00,73.4,72.8,29.98,South,187,0.0,0.0,98,0.00,,,0.02,11,Wunderground v.1.15,2013-07-19 10:05:00,
2013-07-19 06:06:00,73.4,72.8,29.98,South,187,0.0,0.0,98,0.00,,,0.02,11,Wunderground v.1.15,2013-07-19 10:06:00,
2013-07-19 06:11:00,73.5,72.9,29.98,South,187,0.0,0.0,98,0.00,,,0.02,14,Wunderground v.1.15,2013-07-19 10:11:00,
2013-07-19 06:16:00,73.4,72.8,29.98,South,187,0.0,0.0,98,0.00,,,0.02,18,Wunderground v.1.15,2013-07-19 10:16:00,
2013-07-19 06:21:00,73.4,72.8,29.98,South,187,0.0,0.0,98,0.00,,,0.02,21,Wunderground v.1.15,2013-07-19 10:21:00,
2013-07-19 06:26:00,73.4,72.8,29.98,South,187,0.0,0.0,98,0.00,,,0.02,25,Wunderground v.1.15,2013-07-19 10:26:00,
2013-07-19 06:31:00,73.5,72.9,29.98,South,187,0.0,0.0,98,0.00,,,0.02,28,Wunderground v.1.15,2013-07-19 10:31:00,
2013-07-19 06:36:00,73.7,73.4,29.98,South,187,0.0,0.0,99,0.00,,,0.02,32,Wunderground v.1.15,2013-07-19 10:36:00,
2013-07-19 06:41:00,73.9,73.6,29.98,South,187,0.0,0.0,99,0.00,,,0.02,37,Wunderground v.1.15,2013-07-19 10:41:00,
2013-07-19 06:46:00,73.9,73.6,29.98,South,187,0.0,0.0,99,0.00,,,0.02,40,Wunderground v.1.15,2013-07-19 10:46:00,
2013-07-19 06:51:00,74.3,74.0,29.98,South,187,0.0,0.0,99,0.00,,,0.02,44,Wunderground v.1.15,2013-07-19 10:51:00,
2013-07-19 06:56:00,74.7,74.4,29.98,South,187,0.0,0.0,99,0.00,,,0.02,47,Wunderground v.1.15,2013-07-19 10:56:00,
2013-07-19 07:01:00,75.3,75.0,29.98,West,261,0.0,0.0,99,0.00,,,0.02,53,Wunderground v.1.15,2013-07-19 11:01:00,
2013-07-19 07:06:00,75.7,75.4,29.98,WNW,300,1.0,4.0,99,0.00,,,0.02,54,Wunderground v.1.15,2013-07-19 11:06:00,
2013-07-19 07:11:00,76.2,75.9,29.99,NW,318,1.0,2.0,99,0.00,,,0.02,60,Wunderground v.1.15,2013-07-19 11:11:00,
2013-07-19 07:16:00,76.7,76.1,29.99,NNW,338,0.0,3.0,98,0.00,,,0.02,63,Wunderground v.1.15,2013-07-19 11:16:00,
2013-07-19 07:21:00,77.2,76.0,29.98,NNW,334,2.0,3.0,96,0.00,,,0.02,77,Wunderground v.1.15,2013-07-19 11:21:00,
2013-07-19 07:26:00,77.7,76.2,29.98,NNW,335,5.0,5.0,95,0.00,,,0.02,70,Wunderground v.1.15,2013-07-19 11:26:00,
2013-07-19 07:31:00,78.1,76.2,29.98,NW,314,0.0,3.0,94,0.00,,,0.02,74,Wunderground v.1.15,2013-07-19 11:31:00,
2013-07-19 07:37:00,78.5,76.3,29.98,North,355,2.0,4.0,93,0.00,,,0.02,107,Wunderground v.1.15,2013-07-19 11:37:00,
2013-07-19 07:42:00,78.8,75.9,29.98,NNW,342,0.0,4.0,91,0.00,,,0.02,188,Wunderground v.1.15,2013-07-19 11:42:00,
2013-07-19 07:47:00,79.2,76.7,29.99,NNW,338,1.0,5.0,92,0.00,,,0.02,204,Wunderground v.1.15,2013-07-19 11:47:00,
2013-07-19 07:52:00,79.4,76.2,29.98,NW,325,1.0,4.0,90,0.00,,,0.02,218,Wunderground v.1.15,2013-07-19 11:52:00,
2013-07-19 07:57:00,79.6,76.4,29.99,NW,319,1.0,6.0,90,0.00,,,0.02,234,Wunderground v.1.15,2013-07-19 11:57:00,
2013-07-19 08:02:00,79.8,76.9,29.99,NNW,330,0.0,4.0,91,0.00,,,0.02,246,Wunderground v.1.15,2013-07-19 12:02:00,
2013-07-19 08:07:00,80.0,76.8,29.99,WNW,303,4.0,5.0,90,0.00,,,0.02,264,Wunderground v.1.15,2013-07-19 12:07:00,
2013-07-19 08:12:00,80.2,76.7,29.99,WNW,293,2.0,4.0,89,0.00,,,0.02,272,Wunderground v.1.15,2013-07-19 12:12:00,
2013-07-19 08:17:00,80.5,77.0,29.99,WNW,284,4.0,5.0,89,0.00,,,0.02,292,Wunderground v.1.15,2013-07-19 12:17:00,
2013-07-19 08:22:00,80.7,77.2,29.99,WNW,300,0.0,5.0,89,0.00,,,0.02,301,Wunderground v.1.15,2013-07-19 12:22:00,
2013-07-19 08:27:00,80.9,77.0,29.99,NW,313,4.0,6.0,88,0.00,,,0.02,315,Wunderground v.1.15,2013-07-19 12:27:00,
2013-07-19 08:32:00,81.1,77.2,29.99,NW,315,3.0,7.0,88,0.00,,,0.02,327,Wunderground v.1.15,2013-07-19 12:32:00,
2013-07-19 08:37:00,81.3,77.4,29.99,NW,320,4.0,7.0,88,0.00,,,0.02,348,Wunderground v.1.15,2013-07-19 12:37:00,
2013-07-19 08:42:00,81.5,77.3,29.99,NNW,347,3.0,5.0,87,0.00,,,0.02,352,Wunderground v.1.15,2013-07-19 12:42:00,
2013-07-19 08:47:00,81.9,77.6,29.99,North,360,5.0,7.0,87,0.00,,,0.02,380,Wunderground v.1.15,2013-07-19 12:47:00,
2013-07-19 08:52:00,82.0,77.4,29.99,North,355,4.0,9.0,86,0.00,,,0.02,390,Wunderground v.1.15,2013-07-19 12:52:00,
2013-07-19 08:57:00,82.1,77.5,29.99,North,10,3.0,9.0,86,0.00,,,0.02,399,Wunderground v.1.15,2013-07-19 12:57:00,
2013-07-19 09:02:00,82.3,77.0,29.99,NW,304,4.0,5.0,84,0.00,,,0.02,415,Wunderground v.1.15,2013-07-19 13:02:00,
2013-07-19 09:08:00,82.4,77.1,29.99,North,355,1.0,6.0,84,0.00,,,0.02,434,Wunderground v.1.15,2013-07-19 13:08:00,
2013-07-19 09:12:00,82.6,77.3,29.99,North,10,8.0,8.0,84,0.00,,,0.02,457,Wunderground v.1.15,2013-07-19 13:12:00,
2013-07-19 09:18:00,83.0,77.7,29.99,NNE,12,4.0,8.0,84,0.00,,,0.02,471,Wunderground v.1.15,2013-07-19 13:18:00,
2013-07-19 09:22:00,83.3,77.2,29.99,NNW,346,5.0,7.0,82,0.00,,,0.02,482,Wunderground v.1.15,2013-07-19 13:22:00,
2013-07-19 09:26:00,83.4,77.3,29.99,North,355,3.0,8.0,82,0.00,,,0.02,490,Wunderground v.1.15,2013-07-19 13:26:00,
2013-07-19 09:31:00,83.5,77.4,29.99,NNE,33,6.0,6.0,82,0.00,,,0.02,497,Wunderground v.1.15,2013-07-19 13:31:00,
2013-07-19 09:36:00,83.8,77.3,29.99,NNW,346,6.0,6.0,81,0.00,,,0.02,513,Wunderground v.1.15,2013-07-19 13:36:00,
2013-07-19 09:41:00,84.0,77.5,29.99,North,355,1.0,5.0,81,0.00,,,0.02,508,Wunderground v.1.15,2013-07-19 13:41:00,
2013-07-19 09:46:00,84.4,77.6,29.99,NW,305,7.0,8.0,80,0.00,,,0.02,541,Wunderground v.1.15,2013-07-19 13:46:00,
2013-07-19 09:51:00,84.5,77.3,29.99,NNW,329,2.0,6.0,79,0.00,,,0.02,557,Wunderground v.1.15,2013-07-19 13:51:00,
2013-07-19 09:56:00,84.6,77.0,29.99,North,355,4.0,7.0,78,0.00,,,0.02,573,Wunderground v.1.15,2013-07-19 13:56:00,
2013-07-19 10:01:00,84.8,77.6,29.99,North,5,5.0,7.0,79,0.00,,,0.02,582,Wunderground v.1.15,2013-07-19 14:01:00,
2013-07-19 10:06:00,84.9,77.3,29.99,NNW,338,3.0,7.0,78,0.00,,,0.02,589,Wunderground v.1.15,2013-07-19 14:06:00,
2013-07-19 10:11:00,85.2,77.6,29.99,NNW,346,1.0,5.0,78,0.00,,,0.02,606,Wunderground v.1.15,2013-07-19 14:11:00,
2013-07-19 10:16:00,85.5,78.2,29.99,NNW,344,1.0,6.0,79,0.00,,,0.02,619,Wunderground v.1.15,2013-07-19 14:16:00,
2013-07-19 10:21:00,85.8,78.1,29.99,NW,306,3.0,5.0,78,0.00,,,0.02,647,Wunderground v.1.15,2013-07-19 14:21:00,
2013-07-19 10:26:00,86.0,77.9,29.99,NNW,339,4.0,6.0,77,0.00,,,0.02,649,Wunderground v.1.15,2013-07-19 14:26:00,
2013-07-19 10:31:00,86.1,78.0,29.98,NNW,346,3.0,6.0,77,0.00,,,0.02,673,Wunderground v.1.15,2013-07-19 14:31:00,
2013-07-19 10:36:00,86.2,78.1,29.99,NW,319,5.0,8.0,77,0.00,,,0.02,675,Wunderground v.1.15,2013-07-19 14:36:00,
2013-07-19 10:41:00,86.3,77.0,29.98,North,5,2.0,7.0,74,0.00,,,0.02,687,Wunderground v.1.15,2013-07-19 14:41:00,
2013-07-19 10:46:00,86.5,78.0,29.98,NNW,343,3.0,7.0,76,0.00,,,0.02,700,Wunderground v.1.15,2013-07-19 14:46:00,
2013-07-19 10:51:00,86.6,78.1,29.98,NNW,338,5.0,9.0,76,0.00,,,0.02,712,Wunderground v.1.15,2013-07-19 14:51:00,
2013-07-19 10:56:00,86.8,77.9,29.98,NW,317,3.0,9.0,75,0.00,,,0.02,724,Wunderground v.1.15,2013-07-19 14:56:00,
2013-07-19 11:01:00,87.0,78.5,29.98,NNW,346,3.0,6.0,76,0.00,,,0.02,735,Wunderground v.1.15,2013-07-19 15:01:00,
2013-07-19 11:06:00,87.1,77.4,29.98,NW,315,1.0,7.0,73,0.00,,,0.02,742,Wunderground v.1.15,2013-07-19 15:06:00,
2013-07-19 11:11:00,87.2,77.5,29.98,NNW,342,3.0,6.0,73,0.00,,,0.02,758,Wunderground v.1.15,2013-07-19 15:11:00,
2013-07-19 11:16:00,87.4,77.3,29.98,NW,311,5.0,6.0,72,0.00,,,0.02,715,Wunderground v.1.15,2013-07-19 15:16:00,
2013-07-19 11:21:00,87.5,77.8,29.98,NW,305,2.0,6.0,73,0.00,,,0.02,775,Wunderground v.1.15,2013-07-19 15:21:00,
2013-07-19 11:26:00,87.6,78.3,29.98,North,355,5.0,9.0,74,0.00,,,0.02,789,Wunderground v.1.15,2013-07-19 15:26:00,
2013-07-19 11:31:00,87.7,78.4,29.98,NE,37,7.0,7.0,74,0.00,,,0.02,758,Wunderground v.1.15,2013-07-19 15:31:00,
2013-07-19 11:36:00,87.9,78.6,29.98,North,350,2.0,7.0,74,0.00,,,0.02,795,Wunderground v.1.15,2013-07-19 15:36:00,
2013-07-19 11:41:00,87.9,79.0,29.98,West,275,1.0,5.0,75,0.00,,,0.02,809,Wunderground v.1.15,2013-07-19 15:41:00,
2013-07-19 11:46:00,88.3,79.4,29.98,WNW,294,6.0,8.0,75,0.00,,,0.02,846,Wunderground v.1.15,2013-07-19 15:46:00,
2013-07-19 11:51:00,88.4,79.1,29.98,WNW,294,5.0,8.0,74,0.00,,,0.02,846,Wunderground v.1.15,2013-07-19 15:51:00,
2013-07-19 11:56:00,88.5,78.3,29.97,NNW,329,5.0,9.0,72,0.00,,,0.02,886,Wunderground v.1.15,2013-07-19 15:56:00,
2013-07-19 12:01:00,88.7,78.1,29.97,NW,306,4.0,9.0,71,0.00,,,0.02,805,Wunderground v.1.15,2013-07-19 16:01:00,
2013-07-19 12:06:00,88.6,77.1,29.97,NNW,343,7.0,9.0,69,0.00,,,0.02,900,Wunderground v.1.15,2013-07-19 16:06:00,
2013-07-19 12:12:00,88.8,77.3,29.97,NNE,15,5.0,9.0,69,0.00,,,0.02,856,Wunderground v.1.15,2013-07-19 16:12:00,
2013-07-19 12:17:00,88.9,77.4,29.97,NW,309,4.0,9.0,69,0.00,,,0.02,896,Wunderground v.1.15,2013-07-19 16:17:00,
2013-07-19 12:22:00,89.0,77.9,29.97,WNW,284,6.0,7.0,70,0.00,,,0.02,907,Wunderground v.1.15,2013-07-19 16:22:00,
2013-07-19 12:26:00,89.1,78.9,29.96,North,9,6.0,8.0,72,0.00,,,0.02,907,Wunderground v.1.15,2013-07-19 16:26:00,
2013-07-19 12:31:00,89.2,77.3,29.96,NW,309,5.0,11.0,68,0.00,,,0.02,914,Wunderground v.1.15,2013-07-19 16:31:00,
2013-07-19 12:37:00,89.3,77.3,29.96,NNW,330,13.0,13.0,68,0.00,,,0.02,893,Wunderground v.1.15,2013-07-19 16:37:00,
2013-07-19 12:42:00,89.6,78.1,29.95,WNW,283,2.0,7.0,69,0.00,,,0.02,914,Wunderground v.1.15,2013-07-19 16:42:00,
2013-07-19 12:47:00,89.7,77.3,29.96,West,261,4.0,11.0,67,0.00,,,0.02,863,Wunderground v.1.15,2013-07-19 16:47:00,
2013-07-19 12:52:00,89.9,77.5,29.95,NNW,344,4.0,6.0,67,0.00,,,0.02,879,Wunderground v.1.15,2013-07-19 16:52:00,
2013-07-19 12:57:00,89.9,77.5,29.95,ENE,59,1.0,10.0,67,0.00,,,0.02,833,Wunderground v.1.15,2013-07-19 16:57:00,
2013-07-19 13:02:00,89.9,77.9,29.95,NNW,338,6.0,8.0,68,0.00,,,0.02,229,Wunderground v.1.15,2013-07-19 17:02:00,
2013-07-19 13:07:00,90.0,78.9,29.95,West,274,6.0,9.0,70,0.00,,,0.02,889,Wunderground v.1.15,2013-07-19 17:07:00,
2013-07-19 13:12:00,90.3,78.3,29.95,West,273,4.0,6.0,68,0.00,,,0.02,937,Wunderground v.1.15,2013-07-19 17:12:00,
2013-07-19 13:17:00,90.5,76.7,29.95,NNW,331,8.0,10.0,64,0.00,,,0.02,896,Wunderground v.1.15,2013-07-19 17:17:00,
2013-07-19 13:22:00,90.4,77.5,29.94,NW,316,2.0,9.0,66,0.00,,,0.02,921,Wunderground v.1.15,2013-07-19 17:22:00,
2013-07-19 13:27:00,90.6,77.7,29.94,NNW,334,5.0,9.0,66,0.00,,,0.02,916,Wunderground v.1.15,2013-07-19 17:27:00,
2013-07-19 13:32:00,90.6,78.6,29.94,West,275,3.0,9.0,68,0.00,,,0.02,951,Wunderground v.1.15,2013-07-19 17:32:00,
2013-07-19 13:37:00,90.7,78.7,29.94,NW,322,0.0,9.0,68,0.00,,,0.02,947,Wunderground v.1.15,2013-07-19 17:37:00,
2013-07-19 13:42:00,91.3,78.8,29.94,West,275,5.0,8.0,67,0.00,,,0.02,666,Wunderground v.1.15,2013-07-19 17:42:00,
2013-07-19 13:47:00,90.8,78.3,29.94,NNE,32,6.0,9.0,67,0.00,,,0.02,499,Wunderground v.1.15,2013-07-19 17:47:00,
2013-07-19 13:52:00,90.7,77.3,29.93,NW,309,10.0,10.0,65,0.00,,,0.02,519,Wunderground v.1.15,2013-07-19 17:52:00,
2013-07-19 13:57:00,90.4,77.5,29.93,North,355,1.0,10.0,66,0.00,,,0.02,610,Wunderground v.1.15,2013-07-19 17:57:00,
2013-07-19 14:02:00,90.2,77.3,29.93,North,355,6.0,11.0,66,0.00,,,0.02,483,Wunderground v.1.15,2013-07-19 18:02:00,
2013-07-19 14:07:00,90.0,78.9,29.93,North,360,5.0,11.0,70,0.00,,,0.02,663,Wunderground v.1.15,2013-07-19 18:07:00,
2013-07-19 14:12:00,89.5,77.5,29.93,NNE,26,3.0,7.0,68,0.00,,,0.02,230,Wunderground v.1.15,2013-07-19 18:12:00,
2013-07-19 14:17:00,88.8,76.0,29.93,NNW,342,4.0,8.0,66,0.00,,,0.02,381,Wunderground v.1.15,2013-07-19 18:17:00,
2013-07-19 14:22:00,88.3,75.5,29.93,NNW,338,5.0,9.0,66,0.00,,,0.02,195,Wunderground v.1.15,2013-07-19 18:22:00,
2013-07-19 14:27:00,87.7,76.3,29.93,North,5,3.0,9.0,69,0.00,,,0.02,216,Wunderground v.1.15,2013-07-19 18:27:00,
2013-07-19 14:32:00,87.5,76.5,29.92,North,355,0.0,4.0,70,0.00,,,0.02,283,Wunderground v.1.15,2013-07-19 18:32:00,
2013-07-19 14:37:00,87.4,76.8,29.92,NNW,332,3.0,5.0,71,0.00,,,0.02,218,Wunderground v.1.15,2013-07-19 18:37:00,
2013-07-19 14:42:00,87.3,76.7,29.92,WNW,300,1.0,4.0,71,0.00,,,0.02,244,Wunderground v.1.15,2013-07-19 18:42:00,
2013-07-19 14:47:00,87.7,77.5,29.91,NW,308,0.0,4.0,72,0.00,,,0.02,904,Wunderground v.1.15,2013-07-19 18:47:00,
2013-07-19 14:52:00,88.7,77.7,29.91,NNW,332,3.0,6.0,70,0.00,,,0.02,861,Wunderground v.1.15,2013-07-19 18:52:00,
2013-07-19 14:57:00,89.4,77.0,29.91,NW,321,5.0,8.0,67,0.00,,,0.02,819,Wunderground v.1.15,2013-07-19 18:57:00,
2013-07-19 15:02:00,89.9,78.8,29.90,NNE,26,3.0,7.0,70,0.00,,,0.02,791,Wunderground v.1.15,2013-07-19 19:02:00,
2013-07-19 15:07:00,90.4,78.4,29.90,WNW,296,1.0,7.0,68,0.00,,,0.02,768,Wunderground v.1.15,2013-07-19 19:07:00,
2013-07-19 15:12:00,90.8,77.4,29.90,WNW,293,2.0,7.0,65,0.00,,,0.02,759,Wunderground v.1.15,2013-07-19 19:12:00,
2013-07-19 15:17:00,91.1,76.7,29.89,NW,323,5.0,9.0,63,0.00,,,0.02,744,Wunderground v.1.15,2013-07-19 19:17:00,
2013-07-19 15:22:00,91.4,77.0,29.89,NW,313,2.0,7.0,63,0.00,,,0.02,737,Wunderground v.1.15,2013-07-19 19:22:00,
2013-07-19 15:27:00,91.5,79.4,29.89,NW,313,7.0,7.0,68,0.00,,,0.02,722,Wunderground v.1.15,2013-07-19 19:27:00,
2013-07-19 15:32:00,91.6,78.2,29.89,NW,304,10.0,10.0,65,0.00,,,0.02,728,Wunderground v.1.15,2013-07-19 19:32:00,
2013-07-19 15:37:00,91.5,78.5,29.88,NW,324,2.0,11.0,66,0.00,,,0.02,700,Wunderground v.1.15,2013-07-19 19:37:00,
2013-07-19 15:42:00,91.7,78.7,29.88,WSW,252,7.0,8.0,66,0.00,,,0.02,694,Wunderground v.1.15,2013-07-19 19:42:00,
2013-07-19 15:47:00,91.5,78.5,29.88,NW,304,8.0,9.0,66,0.00,,,0.02,691,Wunderground v.1.15,2013-07-19 19:47:00,
2013-07-19 15:52:00,91.5,78.5,29.88,NNW,334,5.0,8.0,66,0.00,,,0.02,677,Wunderground v.1.15,2013-07-19 19:52:00,
2013-07-19 15:57:00,91.6,79.5,29.87,WSW,256,6.0,8.0,68,0.00,,,0.02,657,Wunderground v.1.15,2013-07-19 19:57:00,
2013-07-19 16:02:00,91.7,77.3,29.87,NNW,329,4.0,8.0,63,0.00,,,0.02,675,Wunderground v.1.15,2013-07-19 20:02:00,
2013-07-19 16:07:00,91.7,78.7,29.87,WNW,301,5.0,9.0,66,0.00,,,0.02,649,Wunderground v.1.15,2013-07-19 20:07:00,
2013-07-19 16:12:00,91.7,77.8,29.87,West,273,4.0,10.0,64,0.00,,,0.02,647,Wunderground v.1.15,2013-07-19 20:12:00,
2013-07-19 16:17:00,91.8,78.4,29.87,WNW,296,3.0,10.0,65,0.00,,,0.02,599,Wunderground v.1.15,2013-07-19 20:17:00,
2013-07-19 16:22:00,91.8,76.9,29.86,WNW,287,4.0,9.0,62,0.00,,,0.02,589,Wunderground v.1.15,2013-07-19 20:22:00,
2013-07-19 16:27:00,91.6,78.2,29.86,NNW,327,8.0,12.0,65,0.00,,,0.02,202,Wunderground v.1.15,2013-07-19 20:27:00,
2013-07-19 16:32:00,91.3,76.9,29.86,NW,318,5.0,9.0,63,0.00,,,0.02,613,Wunderground v.1.15,2013-07-19 20:32:00,
2013-07-19 16:37:00,91.5,77.6,29.86,WNW,291,2.0,9.0,64,0.00,,,0.02,564,Wunderground v.1.15,2013-07-19 20:37:00,
2013-07-19 16:42:00,91.9,78.4,29.86,WNW,289,1.0,6.0,65,0.00,,,0.02,547,Wunderground v.1.15,2013-07-19 20:42:00,
2013-07-19 16:48:00,92.1,77.7,29.85,NW,311,4.0,7.0,63,0.00,,,0.02,541,Wunderground v.1.15,2013-07-19 20:48:00,
2013-07-19 16:53:00,92.0,77.6,29.86,WNW,288,5.0,7.0,63,0.00,,,0.02,534,Wunderground v.1.15,2013-07-19 20:53:00,
2013-07-19 16:58:00,91.9,78.0,29.86,NW,326,5.0,8.0,64,0.00,,,0.02,506,Wunderground v.1.15,2013-07-19 20:58:00,
2013-07-19 17:03:00,92.0,78.1,29.86,NW,323,4.0,6.0,64,0.00,,,0.02,496,Wunderground v.1.15,2013-07-19 21:03:00,
2013-07-19 17:08:00,92.0,78.5,29.86,WSW,257,5.0,8.0,65,0.00,,,0.02,457,Wunderground v.1.15,2013-07-19 21:08:00,
2013-07-19 17:13:00,91.7,77.8,29.86,NNW,336,5.0,8.0,64,0.00,,,0.02,383,Wunderground v.1.15,2013-07-19 21:13:00,
2013-07-19 17:18:00,90.8,76.9,29.86,WNW,286,2.0,10.0,64,0.00,,,0.02,459,Wunderground v.1.15,2013-07-19 21:18:00,
2013-07-19 17:23:00,91.0,77.1,29.86,NW,304,2.0,8.0,64,0.00,,,0.02,410,Wunderground v.1.15,2013-07-19 21:23:00,
2013-07-19 17:28:00,90.8,77.4,29.85,North,355,2.0,9.0,65,0.00,,,0.02,327,Wunderground v.1.15,2013-07-19 21:28:00,
2013-07-19 17:33:00,90.4,77.5,29.85,NNW,332,5.0,10.0,66,0.00,,,0.02,167,Wunderground v.1.15,2013-07-19 21:33:00,
2013-07-19 17:38:00,89.7,77.3,29.86,NW,323,3.0,10.0,67,0.00,,,0.02,53,Wunderground v.1.15,2013-07-19 21:38:00,
2013-07-19 17:43:00,89.0,76.6,29.86,NW,307,3.0,8.0,67,0.00,,,0.02,35,Wunderground v.1.15,2013-07-19 21:43:00,
2013-07-19 17:48:00,88.5,76.6,29.86,West,281,5.0,8.0,68,0.00,,,0.02,47,Wunderground v.1.15,2013-07-19 21:48:00,
2013-07-19 17:53:00,88.1,76.6,29.86,WNW,288,6.0,7.0,69,0.00,,,0.02,40,Wunderground v.1.15,2013-07-19 21:53:00,
2013-07-19 17:58:00,87.9,76.5,29.85,NNW,338,2.0,7.0,69,0.00,,,0.02,54,Wunderground v.1.15,2013-07-19 21:58:00,
2013-07-19 18:03:00,87.7,76.7,29.85,West,277,2.0,4.0,70,0.00,,,0.02,62,Wunderground v.1.15,2013-07-19 22:03:00,
2013-07-19 18:08:00,87.5,76.9,29.85,NW,313,1.0,7.0,71,0.00,,,0.02,67,Wunderground v.1.15,2013-07-19 22:08:00,
2013-07-19 18:13:00,87.4,76.4,29.84,WNW,291,0.0,4.0,70,0.00,,,0.02,60,Wunderground v.1.15,2013-07-19 22:13:00,
2013-07-19 18:18:00,87.3,76.3,29.84,WNW,301,0.0,5.0,70,0.00,,,0.02,54,Wunderground v.1.15,2013-07-19 22:18:00,
2013-07-19 18:23:00,87.3,76.3,29.85,WNW,294,0.0,4.0,70,0.00,,,0.02,40,Wunderground v.1.15,2013-07-19 22:23:00,
2013-07-19 18:28:00,87.1,76.5,29.84,NW,312,1.0,4.0,71,0.00,,,0.02,39,Wunderground v.1.15,2013-07-19 22:28:00,
2013-07-19 18:33:00,86.8,75.8,29.85,North,355,5.0,7.0,70,0.00,,,0.02,42,Wunderground v.1.15,2013-07-19 22:33:00,
2013-07-19 18:38:00,86.7,75.3,29.85,NNE,18,1.0,8.0,69,0.00,,,0.02,37,Wunderground v.1.15,2013-07-19 22:38:00,
2013-07-19 18:43:00,86.5,74.7,29.85,NNE,19,6.0,7.0,68,0.00,,,0.02,49,Wunderground v.1.15,2013-07-19 22:43:00,
2013-07-19 18:48:00,86.1,74.7,29.85,North,350,4.0,7.0,69,0.00,,,0.02,49,Wunderground v.1.15,2013-07-19 22:48:00,
2013-07-19 18:53:00,85.8,73.1,29.85,North,5,4.0,9.0,66,0.00,,,0.02,51,Wunderground v.1.15,2013-07-19 22:53:00,
2013-07-19 18:58:00,85.4,74.1,29.86,NNE,22,5.0,9.0,69,0.00,,,0.02,53,Wunderground v.1.15,2013-07-19 22:58:00,
2013-07-19 19:04:00,84.7,72.1,29.85,NNE,28,5.0,9.0,66,0.00,,,0.02,56,Wunderground v.1.15,2013-07-19 23:04:00,
2013-07-19 19:09:00,84.3,72.6,29.84,NNE,12,5.0,9.0,68,0.00,,,0.02,62,Wunderground v.1.15,2013-07-19 23:09:00,
2013-07-19 19:14:00,83.9,71.3,29.85,NNE,24,6.0,7.0,66,0.00,,,0.02,63,Wunderground v.1.15,2013-07-19 23:14:00,
2013-07-19 19:19:00,83.7,71.1,29.85,North,351,1.0,7.0,66,0.00,,,0.02,63,Wunderground v.1.15,2013-07-19 23:19:00,
2013-07-19 19:24:00,83.6,71.5,29.85,North,5,1.0,5.0,67,0.00,,,0.02,58,Wunderground v.1.15,2013-07-19 23:24:00,
2013-07-19 19:29:00,83.5,72.3,29.85,North,360,1.0,5.0,69,0.00,,,0.02,54,Wunderground v.1.15,2013-07-19 23:29:00,
2013-07-19 19:34:00,83.3,72.1,29.86,NW,306,5.0,5.0,69,0.00,,,0.02,49,Wunderground v.1.15,2013-07-19 23:34:00,
2013-07-19 19:39:00,83.0,71.8,29.87,WNW,290,2.0,6.0,69,0.00,,,0.02,44,Wunderground v.1.15,2013-07-19 23:39:00,
2013-07-19 19:44:00,82.8,71.2,29.87,WNW,300,0.0,6.0,68,0.00,,,0.02,40,Wunderground v.1.15,2013-07-19 23:44:00,
2013-07-19 19:49:00,82.5,70.4,29.87,WNW,287,2.0,6.0,67,0.00,,,0.02,35,Wunderground v.1.15,2013-07-19 23:49:00,
2013-07-19 19:54:00,82.3,70.7,29.87,West,281,1.0,3.0,68,0.00,,,0.02,30,Wunderground v.1.15,2013-07-19 23:54:00,
2013-07-19 19:59:00,82.2,71.0,29.87,West,281,0.0,3.0,69,0.00,,,0.02,28,Wunderground v.1.15,2013-07-19 23:59:00,
2013-07-19 20:04:00,82.0,70.8,29.88,West,281,0.0,1.0,69,0.00,,,0.02,23,Wunderground v.1.15,2013-07-20 00:04:00,
2013-07-19 20:09:00,81.9,71.6,29.88,West,281,0.0,1.0,71,0.00,,,0.02,16,Wunderground v.1.15,2013-07-20 00:09:00,
2013-07-19 20:14:00,81.6,71.7,29.88,West,281,0.0,1.0,72,0.00,,,0.02,11,Wunderground v.1.15,2013-07-20 00:14:00,
2013-07-19 20:19:00,81.0,71.9,29.88,WSW,257,1.0,3.0,74,0.00,,,0.02,7,Wunderground v.1.15,2013-07-20 00:19:00,
2013-07-19 20:24:00,80.5,70.6,29.87,WSW,256,0.0,2.0,72,0.00,,,0.02,0,Wunderground v.1.15,2013-07-20 00:24:00,
2013-07-19 20:29:00,80.4,72.1,29.88,WSW,257,0.0,2.0,76,0.00,,,0.02,0,Wunderground v.1.15,2013-07-20 00:29:00,
2013-07-19 20:34:00,79.9,72.0,29.89,WNW,288,0.0,2.0,77,0.00,,,0.02,0,Wunderground v.1.15,2013-07-20 00:34:00,
2013-07-19 20:39:00,79.5,70.9,29.89,NNW,336,2.0,2.0,75,0.00,,,0.02,0,Wunderground v.1.15,2013-07-20 00:39:00,
2013-07-19 20:44:00,80.0,70.6,29.90,NNE,20,10.0,14.0,73,0.00,,,0.02,0,Wunderground v.1.15,2013-07-20 00:44:00,
2013-07-19 20:49:00,80.0,69.7,29.90,NE,38,5.0,14.0,71,0.00,,,0.02,0,Wunderground v.1.15,2013-07-20 00:49:00,
2013-07-19 20:54:00,78.9,70.3,29.90,North,11,3.0,15.0,75,0.00,,,0.02,0,Wunderground v.1.15,2013-07-20 00:54:00,
2013-07-19 20:59:00,78.0,70.6,29.89,NNW,348,3.0,15.0,78,0.00,,,0.03,0,Wunderground v.1.15,2013-07-20 00:59:00,
2013-07-19 21:04:00,76.9,71.0,29.89,North,5,4.0,7.0,82,0.00,,,0.03,0,Wunderground v.1.15,2013-07-20 01:04:00,
2013-07-19 21:10:00,76.2,71.0,29.89,North,355,4.0,4.0,84,0.07,,,0.04,0,Wunderground v.1.15,2013-07-20 01:10:00,
2013-07-19 21:15:00,75.8,71.0,29.89,WNW,296,0.0,5.0,85,0.06,,,0.04,0,Wunderground v.1.15,2013-07-20 01:15:00,
2013-07-19 21:20:00,75.7,71.2,29.89,WNW,296,2.0,2.0,86,0.04,,,0.04,0,Wunderground v.1.15,2013-07-20 01:20:00,
2013-07-19 21:25:00,75.4,71.6,29.88,West,277,1.0,4.0,88,0.00,,,0.04,0,Wunderground v.1.15,2013-07-20 01:25:00,
2013-07-19 21:30:00,75.3,71.5,29.88,WNW,285,0.0,1.0,88,0.00,,,0.04,0,Wunderground v.1.15,2013-07-20 01:30:00,
2013-07-19 21:35:00,75.2,71.7,29.88,WNW,288,1.0,2.0,89,0.00,,,0.04,0,Wunderground v.1.15,2013-07-20 01:35:00,
2013-07-19 21:40:00,75.2,71.4,29.87,NNW,340,0.0,0.0,88,0.00,,,0.04,0,Wunderground v.1.15,2013-07-20 01:40:00,
2013-07-19 21:45:00,75.3,71.8,29.86,NNW,340,0.0,0.0,89,0.00,,,0.04,0,Wunderground v.1.15,2013-07-20 01:45:00,
2013-07-19 21:50:00,75.2,72.1,29.86,NNW,340,0.0,0.0,90,0.00,,,0.04,0,Wunderground v.1.15,2013-07-20 01:50:00,
2013-07-19 21:55:00,74.9,72.1,29.86,NNW,340,0.0,0.0,91,0.00,,,0.04,0,Wunderground v.1.15,2013-07-20 01:55:00,
2013-07-19 22:00:00,74.8,72.0,29.85,NNW,340,0.0,0.0,91,0.00,,,0.04,0,Wunderground v.1.15,2013-07-20 02:00:00,
2013-07-19 22:05:00,74.6,72.1,29.84,NW,307,0.0,1.0,92,0.00,,,0.04,0,Wunderground v.1.15,2013-07-20 02:05:00,
2013-07-19 22:10:00,74.4,72.2,29.84,NW,307,0.0,0.0,93,0.00,,,0.04,0,Wunderground v.1.15,2013-07-20 02:10:00,
2013-07-19 22:15:00,74.2,72.0,29.84,NW,307,0.0,0.0,93,0.00,,,0.04,0,Wunderground v.1.15,2013-07-20 02:15:00,
2013-07-19 22:20:00,74.0,71.8,29.85,NW,315,2.0,2.0,93,0.00,,,0.04,0,Wunderground v.1.15,2013-07-20 02:20:00,
2013-07-19 22:25:00,73.9,72.1,29.85,NW,325,0.0,2.0,94,0.00,,,0.04,0,Wunderground v.1.15,2013-07-20 02:25:00,
2013-07-19 22:30:00,73.8,72.0,29.84,NW,325,0.0,0.0,94,0.00,,,0.04,0,Wunderground v.1.15,2013-07-20 02:30:00,
2013-07-19 22:35:00,73.7,71.9,29.85,NW,319,2.0,3.0,94,0.00,,,0.04,0,Wunderground v.1.15,2013-07-20 02:35:00,
2013-07-19 22:40:00,73.6,71.8,29.85,NW,319,1.0,2.0,94,0.00,,,0.04,0,Wunderground v.1.15,2013-07-20 02:40:00,
2013-07-19 22:45:00,73.7,71.9,29.85,NNW,342,0.0,3.0,94,0.00,,,0.04,0,Wunderground v.1.15,2013-07-20 02:45:00,
2013-07-19 22:50:00,73.7,71.5,29.86,West,276,2.0,3.0,93,0.00,,,0.04,0,Wunderground v.1.15,2013-07-20 02:50:00,
2013-07-19 22:55:00,74.2,71.4,29.87,NW,306,0.0,5.0,91,0.00,,,0.04,0,Wunderground v.1.15,2013-07-20 02:55:00,
2013-07-19 23:00:00,74.5,71.4,29.87,NNW,333,3.0,3.0,90,0.00,,,0.04,0,Wunderground v.1.15,2013-07-20 03:00:00,
2013-07-19 23:05:00,74.7,71.2,29.87,NW,323,4.0,5.0,89,0.00,,,0.04,0,Wunderground v.1.15,2013-07-20 03:05:00,
2013-07-19 23:10:00,75.0,70.9,29.87,NW,323,3.0,4.0,87,0.00,,,0.04,0,Wunderground v.1.15,2013-07-20 03:10:00,
2013-07-19 23:15:00,75.3,70.5,29.87,NNW,331,1.0,4.0,85,0.00,,,0.04,0,Wunderground v.1.15,2013-07-20 03:15:00,
2013-07-19 23:20:00,75.4,70.6,29.87,NNW,331,0.0,1.0,85,0.00,,,0.04,0,Wunderground v.1.15,2013-07-20 03:20:00,
2013-07-19 23:25:00,75.3,70.5,29.87,WNW,290,5.0,5.0,85,0.00,,,0.04,0,Wunderground v.1.15,2013-07-20 03:25:00,
2013-07-19 23:30:00,75.5,70.3,29.87,WNW,292,2.0,3.0,84,0.00,,,0.04,0,Wunderground v.1.15,2013-07-20 03:30:00,
2013-07-19 23:35:00,75.7,70.5,29.87,West,279,2.0,7.0,84,0.00,,,0.04,0,Wunderground v.1.15,2013-07-20 03:35:00,
2013-07-19 23:40:00,75.6,70.1,29.87,NW,321,2.0,4.0,83,0.00,,,0.04,0,Wunderground v.1.15,2013-07-20 03:40:00,
2013-07-19 23:45:00,75.6,70.1,29.87,NW,326,4.0,6.0,83,0.00,,,0.04,0,Wunderground v.1.15,2013-07-20 03:45:00,
2013-07-19 23:50:00,75.5,70.0,29.87,NNW,330,5.0,7.0,83,0.00,,,0.04,0,Wunderground v.1.15,2013-07-20 03:50:00,
2013-07-19 23:55:00,75.1,69.6,29.87,NW,324,1.0,7.0,83,0.00,,,0.04,0,Wunderground v.1.15,2013-07-20 03:55:00,